TimeMST,TemperatureF,Dew PointF,Humidity,Sea Level PressureIn,VisibilityMPH,Wind Direction,Wind SpeedMPH,Gust SpeedMPH,PrecipitationIn,Events,Conditions,WindDirDegrees,DateUTC
12:53 AM,37.4,23.0,56,29.72,10.0,Variable,5.8,17.3,N/A,,Partly Cloudy,0,2011-11-25 07:53:00
1:53 AM,33.8,24.8,70,29.71,10.0,South,5.8,-,N/A,,Partly Cloudy,190,2011-11-25 08:53:00
2:53 AM,33.1,21.9,64,29.74,10.0,SSW,3.5,-,N/A,,Partly Cloudy,210,2011-11-25 09:53:00
3:53 AM,34.0,25.0,70,29.73,10.0,NW,6.9,-,N/A,,Overcast,320,2011-11-25 10:53:00
4:53 AM,30.9,25.0,79,29.70,10.0,Calm,Calm,-,0.00,,Scattered Clouds,0,2011-11-25 11:53:00
5:18 AM,33.8,26.6,75,29.69,2.5,Variable,4.6,-,0.00,Snow,Light Snow,0,2011-11-25 12:18:00
5:23 AM,30.2,26.6,86,29.68,3.0,East,5.8,-,0.00,Snow,Light Snow,100,2011-11-25 12:23:00
5:53 AM,30.9,27.0,85,29.71,10.0,Variable,4.6,-,0.00,,Mostly Cloudy,0,2011-11-25 12:53:00
6:41 AM,30.2,26.6,86,29.72,1.5,NW,24.2,35.7,N/A,Snow,Light Snow,310,2011-11-25 13:41:00
6:49 AM,28.4,26.6,93,29.73,0.2,NW,19.6,32.2,N/A,Fog-Snow,Heavy Snow,310,2011-11-25 13:49:00
6:53 AM,28.0,27.0,96,29.78,0.2,NW,18.4,32.2,0.01,Fog-Snow,Heavy Snow,310,2011-11-25 13:53:00
6:59 AM,28.4,26.6,93,29.74,0.2,NW,12.7,26.5,0.01,Fog-Snow,Heavy Snow,310,2011-11-25 13:59:00
7:08 AM,28.4,28.4,100,29.74,0.2,WNW,6.9,19.6,0.02,Fog-Snow,Heavy Snow,300,2011-11-25 14:08:00
7:17 AM,30.2,24.8,80,29.74,2.0,West,11.5,20.7,0.02,Snow,Light Snow,270,2011-11-25 14:17:00
7:22 AM,30.2,24.8,80,29.74,9.0,West,8.1,19.6,0.02,,Overcast,260,2011-11-25 14:22:00
7:53 AM,28.0,25.0,88,29.83,10.0,NNE,4.6,-,0.02,,Overcast,30,2011-11-25 14:53:00
8:18 AM,28.4,23.0,80,29.80,1.8,WNW,23.0,35.7,0.00,Snow,Light Snow,300,2011-11-25 15:18:00
8:27 AM,26.6,21.2,80,29.80,1.8,NW,24.2,35.7,0.00,Snow,Light Snow,310,2011-11-25 15:27:00
8:41 AM,28.4,19.4,69,29.81,3.0,NW,17.3,24.2,N/A,Snow,Light Snow,310,2011-11-25 15:41:00
8:48 AM,28.4,17.6,64,29.81,8.0,NW,21.9,32.2,0.00,,Overcast,310,2011-11-25 15:48:00
8:53 AM,28.4,15.8,59,29.81,7.0,NW,23.0,32.2,N/A,,Overcast,310,2011-11-25 15:53:00
9:53 AM,28.9,10.9,47,29.92,10.0,NW,13.8,19.6,0.00,,Scattered Clouds,310,2011-11-25 16:53:00
10:53 AM,28.0,10.0,47,30.00,10.0,WNW,16.1,25.3,N/A,,Scattered Clouds,300,2011-11-25 17:53:00
11:53 AM,30.2,5.0,34,29.93,10.0,West,19.6,33.4,N/A,,Clear,280,2011-11-25 18:53:00
12:53 PM,26.1,10.9,53,30.03,9.0,NW,16.1,35.7,N/A,,Scattered Clouds,310,2011-11-25 19:53:00
1:53 PM,27.0,7.0,43,30.07,8.0,WNW,25.3,36.8,N/A,,Clear,300,2011-11-25 20:53:00
2:53 PM,28.0,5.0,38,30.12,10.0,WNW,16.1,31.1,N/A,,Partly Cloudy,300,2011-11-25 21:53:00
3:53 PM,26.1,5.0,41,30.19,10.0,WNW,20.7,27.6,N/A,,Clear,290,2011-11-25 22:53:00
4:53 PM,24.1,6.1,46,30.26,10.0,NW,18.4,29.9,N/A,,Clear,310,2011-11-25 23:53:00
5:53 PM,24.1,7.0,48,30.33,10.0,WNW,9.2,20.7,N/A,,Overcast,300,2011-11-26 00:53:00
6:53 PM,25.0,9.0,51,30.40,10.0,NW,10.4,19.6,N/A,,Overcast,310,2011-11-26 01:53:00
7:53 PM,24.1,10.0,55,30.44,10.0,NW,17.3,25.3,N/A,,Overcast,310,2011-11-26 02:53:00
8:53 PM,24.8,10.4,54,30.34,10.0,NW,15.0,20.7,N/A,,Overcast,310,2011-11-26 03:53:00
9:53 PM,24.1,10.9,57,30.51,10.0,NW,11.5,-,N/A,,Overcast,310,2011-11-26 04:53:00
10:53 PM,23.0,10.0,58,30.56,10.0,NW,6.9,-,N/A,,Overcast,320,2011-11-26 05:53:00
11:53 PM,21.0,8.1,57,30.59,10.0,WNW,6.9,-,N/A,,Mostly Cloudy,300,2011-11-26 06:53:00